createdAt,value
2023-05-19T00:04:17.295Z,100999.41
2023-05-19T00:09:19.636Z,101010.94
2023-05-19T00:14:22.014Z,101003.37
2023-05-19T00:19:25.570Z,101011.88
2023-05-19T00:24:27.899Z,100998.41
2023-05-19T00:29:30.053Z,101016.72
2023-05-19T00:34:32.237Z,101000.91
2023-05-19T00:39:34.373Z,101003.03
2023-05-19T00:44:41.441Z,101004.72
2023-05-19T00:49:43.557Z,100994.97
2023-05-19T00:54:46.417Z,100998.69
2023-05-19T00:59:48.949Z,100999.09
2023-05-19T01:04:51.803Z,100997.38
2023-05-19T01:09:54.178Z,100994.09
2023-05-19T01:14:58.715Z,100992.19
2023-05-19T01:20:11.068Z,100988.63
2023-05-19T01:25:29.781Z,100975.47
2023-05-19T01:30:48.653Z,100984.75
2023-05-19T01:35:51.850Z,100984.69
2023-05-19T01:40:55.990Z,100998.12
2023-05-19T01:45:59.002Z,100979.31
2023-05-19T01:51:01.463Z,100978.56
2023-05-19T01:56:04.154Z,100984.94
2023-05-19T02:01:47.496Z,100974.81
2023-05-19T02:07:03.614Z,100986.00
2023-05-19T02:12:23.335Z,100973.88
2023-05-19T02:17:29.406Z,100981.06
2023-05-19T02:22:31.893Z,100981.56
2023-05-19T02:27:35.105Z,100987.41
2023-05-19T02:32:37.703Z,100968.84
2023-05-19T02:37:39.985Z,100986.44
2023-05-19T02:42:42.072Z,100993.25
2023-05-19T02:47:44.257Z,100983.78
2023-05-19T02:52:46.418Z,100998.34
2023-05-19T02:57:48.509Z,100986.34
2023-05-19T03:02:53.085Z,100976.59
2023-05-19T03:07:55.255Z,100982.81
2023-05-19T03:12:57.357Z,100987.81
2023-05-19T03:17:59.493Z,100979.66
2023-05-19T03:23:01.612Z,100977.09
2023-05-19T03:28:03.932Z,100974.72
2023-05-19T03:33:06.234Z,101001.34
2023-05-19T03:38:08.410Z,101006.59
2023-05-19T03:43:10.745Z,101006.06
2023-05-19T03:48:12.968Z,100980.47
2023-05-19T03:53:15.065Z,100984.50
2023-05-19T03:58:17.202Z,101002.41
2023-05-19T04:03:19.472Z,100997.28
2023-05-19T04:08:21.703Z,101002.31
2023-05-19T04:13:23.940Z,101000.97
2023-05-19T04:18:28.785Z,101009.47
2023-05-19T04:23:31.752Z,101002.78
2023-05-19T04:28:38.562Z,101004.81
2023-05-19T04:33:41.104Z,101012.81
2023-05-19T04:38:43.497Z,101022.75
2023-05-19T04:43:45.783Z,101016.31
2023-05-19T04:48:47.870Z,101008.44
2023-05-19T04:53:50.027Z,101028.28
2023-05-19T04:58:53.752Z,101039.03
2023-05-19T05:03:56.161Z,101040.09
2023-05-19T05:08:58.589Z,101024.97
2023-05-19T05:14:01.109Z,101034.13
2023-05-19T05:19:03.861Z,101049.53
2023-05-19T05:24:06.544Z,101043.59
2023-05-19T05:29:09.856Z,101054.34
2023-05-19T05:34:12.050Z,101056.91
2023-05-19T05:39:14.197Z,101052.38
2023-05-19T05:44:16.287Z,101054.19
2023-05-19T05:49:18.731Z,101060.84
2023-05-19T05:54:22.438Z,101039.81
2023-05-19T05:59:25.059Z,101054.37
2023-05-19T06:04:27.237Z,101061.28
2023-05-19T06:09:30.386Z,101060.69
2023-05-19T06:14:32.574Z,101060.41
2023-05-19T06:19:34.694Z,101055.72
2023-05-19T06:24:39.459Z,101067.28
2023-05-19T06:29:41.867Z,101076.94
2023-05-19T06:34:44.014Z,101076.97
2023-05-19T06:39:47.295Z,101086.59
2023-05-19T06:44:50.303Z,101089.84
2023-05-19T06:49:55.573Z,101086.56
2023-05-19T06:54:57.920Z,101088.63
2023-05-19T07:00:00.093Z,101104.66
2023-05-19T07:05:03.183Z,101095.06
2023-05-19T07:10:05.944Z,101097.56
2023-05-19T07:15:08.353Z,101106.06
2023-05-19T07:20:10.859Z,101108.56
2023-05-19T07:25:12.946Z,101098.13
2023-05-19T07:30:15.104Z,101101.97
2023-05-19T07:35:17.264Z,101093.75
2023-05-19T07:40:19.523Z,101081.09
2023-05-19T07:45:21.844Z,101081.97
2023-05-19T07:50:24.102Z,101075.81
2023-05-19T07:55:26.379Z,101081.22
2023-05-19T08:00:28.543Z,101080.47
2023-05-19T08:05:30.814Z,101083.00
2023-05-19T08:10:33.226Z,101074.78
2023-05-19T08:15:35.810Z,101066.34
2023-05-19T08:20:37.976Z,101059.00
2023-05-19T08:25:40.721Z,101067.00
2023-05-19T08:30:42.907Z,101060.37
2023-05-19T08:35:45.088Z,101057.87
2023-05-19T08:40:48.428Z,101071.72
2023-05-19T08:45:50.656Z,101055.34
2023-05-19T08:51:03.310Z,101061.88
2023-05-19T08:56:11.283Z,101065.16
2023-05-19T09:01:16.914Z,101056.31
2023-05-19T09:06:19.688Z,101071.94
2023-05-19T09:11:22.752Z,101065.09
2023-05-19T09:16:27.650Z,101064.25
2023-05-19T09:21:32.203Z,101060.34
2023-05-19T09:26:42.287Z,101051.47
2023-05-19T09:31:55.989Z,101048.62
2023-05-19T09:36:59.829Z,101057.91
2023-05-19T09:42:04.966Z,101063.09
2023-05-19T09:47:09.779Z,101062.38
2023-05-19T09:52:16.292Z,101057.75
2023-05-19T09:57:18.560Z,101046.47
2023-05-19T10:02:21.831Z,101047.66
2023-05-19T10:07:25.293Z,101031.31
2023-05-19T10:12:28.088Z,101027.22
2023-05-19T10:17:30.928Z,101028.84
2023-05-19T10:22:33.797Z,101022.78
2023-05-19T10:27:40.629Z,101008.69
2023-05-19T10:32:46.744Z,101009.53
2023-05-19T10:37:57.640Z,101013.56
2023-05-19T10:43:02.850Z,101019.78
2023-05-19T10:48:05.220Z,101005.56
2023-05-19T10:53:15.085Z,101005.16
2023-05-19T10:58:36.412Z,101002.44
2023-05-19T11:03:49.130Z,100991.38
2023-05-19T11:08:55.545Z,100991.41
2023-05-19T11:14:00.425Z,100972.53
2023-05-19T11:19:02.618Z,100974.09
2023-05-19T11:24:08.886Z,100973.31
2023-05-19T11:29:11.882Z,100965.78
2023-05-19T11:34:14.574Z,100982.34
2023-05-19T11:39:16.993Z,100972.31
2023-05-19T11:44:19.129Z,100957.94
2023-05-19T11:49:21.332Z,100950.19
2023-05-19T11:54:31.611Z,100968.59
2023-05-19T11:59:36.482Z,100964.06
2023-05-19T12:04:38.666Z,100963.91
2023-05-19T12:09:41.322Z,100957.97
2023-05-19T12:14:43.864Z,100957.00
2023-05-19T12:19:50.185Z,100963.47
2023-05-19T12:24:52.791Z,100950.69
2023-05-19T12:29:59.576Z,100944.81
2023-05-19T12:35:07.080Z,100938.87
2023-05-19T12:40:09.959Z,100930.50
2023-05-19T12:45:12.480Z,100929.75
2023-05-19T12:50:14.732Z,100910.06
2023-05-19T12:55:16.884Z,100910.69
2023-05-19T13:00:21.128Z,100893.72
2023-05-19T13:05:24.001Z,100906.34
2023-05-19T13:10:29.706Z,100903.56
2023-05-19T13:15:37.997Z,100896.31
2023-05-19T13:20:42.248Z,100885.03
2023-05-19T13:25:44.401Z,100884.00
2023-05-19T13:30:46.662Z,100879.62
2023-05-19T13:35:49.250Z,100872.84
2023-05-19T13:40:52.799Z,100865.72
2023-05-19T13:45:54.934Z,100864.16
2023-05-19T13:50:57.870Z,100857.53
2023-05-19T13:56:01.228Z,100849.31
2023-05-19T14:01:03.437Z,100851.72
2023-05-19T14:06:05.633Z,100845.16
2023-05-19T14:11:07.872Z,100854.75
2023-05-19T14:16:10.299Z,100853.28
2023-05-19T14:21:12.510Z,100848.62
2023-05-19T14:26:14.653Z,100845.00
2023-05-19T14:31:16.967Z,100844.00
2023-05-19T14:36:19.162Z,100841.91
2023-05-19T14:41:21.884Z,100835.62
2023-05-19T14:46:24.053Z,100829.38
2023-05-19T14:51:26.203Z,100836.75
2023-05-19T14:56:28.328Z,100830.22
2023-05-19T15:01:30.918Z,100836.87
2023-05-19T15:06:33.134Z,100828.91
2023-05-19T15:11:35.866Z,100817.50
2023-05-19T15:16:38.048Z,100814.72
2023-05-19T15:21:40.215Z,100811.47
2023-05-19T15:26:42.424Z,100810.13
2023-05-19T15:31:44.640Z,100821.69
2023-05-19T15:36:47.500Z,100818.47
2023-05-19T15:41:52.672Z,100816.53
2023-05-19T15:46:54.858Z,100814.69
2023-05-19T15:51:57.026Z,100803.47
2023-05-19T15:56:59.194Z,100812.63
2023-05-19T16:02:01.594Z,100805.31
2023-05-19T16:07:03.895Z,100798.50
2023-05-19T16:12:06.490Z,100809.09
2023-05-19T16:17:11.568Z,100800.47
2023-05-19T16:22:13.798Z,100813.69
2023-05-19T16:27:15.959Z,100805.22
2023-05-19T16:32:18.133Z,100817.56
2023-05-19T16:37:20.431Z,100818.03
2023-05-19T16:42:23.194Z,100804.81
2023-05-19T16:47:27.803Z,100805.16
2023-05-19T16:52:30.686Z,100806.44
2023-05-19T16:57:32.872Z,100804.94
2023-05-19T17:02:35.130Z,100804.50
2023-05-19T17:07:37.455Z,100797.47
2023-05-19T17:12:40.035Z,100817.44
2023-05-19T17:17:42.215Z,100810.19
2023-05-19T17:22:44.354Z,100810.91
2023-05-19T17:27:46.460Z,100814.38
2023-05-19T17:32:48.667Z,100817.50
2023-05-19T17:37:50.939Z,100820.13
2023-05-19T17:42:53.099Z,100820.88
2023-05-19T17:47:55.304Z,100827.37
2023-05-19T17:52:57.647Z,100836.25
2023-05-19T17:58:00.182Z,100819.81
2023-05-19T18:03:04.609Z,100833.47
2023-05-19T18:08:09.380Z,100837.16
2023-05-19T18:13:14.641Z,100827.75
2023-05-19T18:18:16.825Z,100821.44
2023-05-19T18:23:20.407Z,100816.25
2023-05-19T18:28:23.859Z,100832.81
2023-05-19T18:33:27.883Z,100818.09
2023-05-19T18:38:30.742Z,100833.66
2023-05-19T18:43:33.173Z,100831.44
2023-05-19T18:48:35.354Z,100830.63
2023-05-19T18:53:37.579Z,100845.50
2023-05-19T18:58:39.727Z,100850.81
2023-05-19T19:03:43.660Z,100842.50
2023-05-19T19:08:45.868Z,100856.28
2023-05-19T19:13:51.198Z,100853.31
2023-05-19T19:18:53.705Z,100851.72
2023-05-19T19:23:57.055Z,100863.81
2023-05-19T19:28:59.245Z,100864.69
2023-05-19T19:34:03.923Z,100870.75
2023-05-19T19:39:06.193Z,100865.34
2023-05-19T19:44:08.466Z,100880.97
2023-05-19T19:49:10.839Z,100878.41
2023-05-19T19:54:12.972Z,100888.47
2023-05-19T19:59:16.109Z,100881.41
2023-05-19T20:04:18.387Z,100899.22
2023-05-19T20:09:20.944Z,100902.28
2023-05-19T20:14:23.058Z,100898.00
2023-05-19T20:19:26.557Z,100904.87
2023-05-19T20:24:28.813Z,100895.88
2023-05-19T20:29:30.930Z,100897.19
2023-05-19T20:34:33.162Z,100890.09
2023-05-19T20:39:35.420Z,100899.94
2023-05-19T20:44:37.644Z,100906.50
2023-05-19T20:49:39.810Z,100900.47
2023-05-19T20:54:42.320Z,100900.78
2023-05-19T20:59:44.491Z,100892.06
2023-05-19T21:04:46.698Z,100895.91
2023-05-19T21:09:50.537Z,100878.16
2023-05-19T21:14:52.640Z,100885.34
2023-05-19T21:19:58.305Z,100890.03
2023-05-19T21:25:00.565Z,100884.84
2023-05-19T21:30:02.843Z,100894.72
2023-05-19T21:35:06.208Z,100891.50
2023-05-19T21:40:09.784Z,100897.00
2023-05-19T21:45:11.959Z,100896.22
2023-05-19T21:50:17.401Z,100902.53
2023-05-19T21:55:22.274Z,100894.34
2023-05-19T22:00:25.694Z,100881.78
2023-05-19T22:05:30.343Z,100885.34
2023-05-19T22:10:32.772Z,100895.22
2023-05-19T22:15:35.194Z,100892.75
2023-05-19T22:20:38.273Z,100885.09
2023-05-19T22:25:40.390Z,100850.91
2023-05-19T22:30:42.782Z,100850.87
2023-05-19T22:35:45.000Z,100850.91
2023-05-19T22:40:47.212Z,100848.16
2023-05-19T22:45:49.475Z,100843.50
2023-05-19T22:50:51.753Z,100846.78
2023-05-19T22:55:53.930Z,100857.72
2023-05-19T23:00:56.217Z,100848.13
2023-05-19T23:05:58.594Z,100845.69
2023-05-19T23:11:02.251Z,100828.19
2023-05-19T23:16:06.652Z,100816.94
2023-05-19T23:21:08.785Z,100828.44
2023-05-19T23:26:13.298Z,100821.34
2023-05-19T23:31:15.583Z,100834.72
2023-05-19T23:36:18.232Z,100830.06
2023-05-19T23:41:21.087Z,100841.56
2023-05-19T23:46:23.349Z,100815.84
2023-05-19T23:51:25.741Z,100823.75
2023-05-19T23:56:27.905Z,100826.78
